• Join FlightAware (Why Join?)
  • Login
  • US Flag 
03:48PM EST


 

Airport Tracker/Info


-or-


 

Live Flight TrackerFlight Track Log ✈ UAL6002 ✈ 14-Apr-2013 ✈ KICT - KORD

Flight Track Log - Related Links

Times and Time Zones

All times are in EDT time to prevent confusion due to time zone crossing. See the UAL6002 flight status page for this flight to view local times or setup timezone preferences in your user account.

Time Position Orientation Groundspeed Altitude Reporting Facility
EDT Latitude Longitude Course Direction KTS MPH feet Rate Location/Type
07:52PM 37.6686 -97.4156 29° Northeast 161 185 1,900  Level Kansas City Center
07:52PM 37.7081 -97.3883 29° Northeast 190 219 3,800 1,823 Climbing Kansas City Center
07:53PM 37.7194 -97.3744 44° Northeast 199 229 4,300 1,475 Climbing Kansas City Center
07:53PM 37.7483 -97.3264 53° Northeast 246 283 5,300 1,662 Climbing Kansas City Center
07:54PM 37.7694 -97.2922 52° Northeast 245 282 6,100 1,714 Climbing Kansas City Center
07:55PM 37.8167 -97.2142 53° Northeast 277 319 7,900 1,884 Climbing Kansas City Center
07:56PM 37.8692 -97.1303 52° Northeast 302 348 9,900 1,475 Climbing Kansas City Center
07:57PM 37.9239 -97.0406 52° Northeast 320 368 10,900 1,056 Climbing Kansas City Center
07:58PM 37.9872 -96.9378 52° Northeast 370 426 12,100 1,561 Climbing Kansas City Center
07:59PM 38.0492 -96.8375 52° Northeast 366 421 14,100 1,983 Climbing Kansas City Center
08:00PM 38.1100 -96.7367 53° Northeast 360 414 16,100 2,031 Climbing Kansas City Center
08:01PM 38.1811 -96.6169 53° Northeast 354 407 18,400 1,714 Climbing Kansas City Center
08:02PM 38.2356 -96.5067 58° Northeast 368 423 19,700 1,339 Climbing Kansas City Center
08:03PM 38.2833 -96.3808 64° Northeast 380 437 21,100 1,328 Climbing Kansas City Center
08:04PM 38.3311 -96.2622 63° Northeast 391 450 22,400 1,344 Climbing Kansas City Center
08:05PM 38.3856 -96.1225 64° Northeast 396 456 23,900 1,258 Climbing Kansas City Center
08:06PM 38.4314 -95.9997 64° Northeast 401 461 25,000 532 Climbing Kansas City Center
08:07PM 38.4889 -95.8450 65° Northeast 430 495 25,000 341 Level Kansas City Center
08:08PM 38.5525 -95.7142 58° Northeast 454 522 25,700 992 Climbing Kansas City Center
08:09PM 38.6322 -95.6086 46° Northeast 433 498 27,000 629 Climbing Kansas City Center
08:10PM 38.7286 -95.4817 46° Northeast 446 513 27,000  Level Kansas City Center
08:11PM 38.8144 -95.3681 46° Northeast 465 535 27,000  Level Kansas City Center
08:12PM 38.9172 -95.2325 46° Northeast 476 548 27,000  Level Kansas City Center
08:13PM 38.9917 -95.0969 55° Northeast 491 565 27,000  Level Kansas City Center
08:14PM 39.0531 -94.9167 66° East 500 575 27,000  Level Kansas City Center
08:15PM 39.1006 -94.7567 69° East 503 579 27,000 590 Level Kansas City Center
08:17PM 39.1567 -94.5717 69° East 497 572 28,200 1,475 Climbing Kansas City Center
08:18PM 39.1956 -94.4192 72° East 471 542 30,000 1,728 Climbing Kansas City Center
08:19PM 39.2361 -94.2497 73° East 445 512 31,800 1,381 Climbing Kansas City Center
08:20PM 39.2761 -94.1094 70° East 435 501 32,900 585 Climbing Kansas City Center
08:21PM 39.3428 -93.9528 61° Northeast 444 511 33,000 49 Climbing Kansas City Center
08:22PM 39.4183 -93.8206 53° Northeast 471 542 33,000  Level Kansas City Center
08:23PM 39.4950 -93.6883 53° Northeast 498 573 33,000  Level Kansas City Center
08:24PM 39.5964 -93.5192 52° Northeast 500 575 33,000  Level Kansas City Center
08:25PM 39.6806 -93.3794 52° Northeast 497 572 33,000  Level Kansas City Center
08:26PM 39.7617 -93.2406 53° Northeast 490 564 33,000  Level Kansas City Center
08:27PM 39.8431 -93.0992 53° Northeast 492 566 33,000  Level Kansas City Center
08:28PM 39.9222 -92.9625 53° Northeast 482 555 33,000  Level Kansas City Center
08:29PM 40.0167 -92.7972 53° Northeast 479 551 33,000  Level Kansas City Center
08:30PM 40.1003 -92.6525 53° Northeast 481 554 33,000  Level Kansas City Center
08:31PM 40.1672 -92.5069 59° Northeast 490 564 33,000  Level Kansas City Center
08:32PM 40.2286 -92.3378 65° Northeast 487 560 33,000  Level Kansas City Center
08:33PM 40.2881 -92.1681 65° Northeast 489 563 33,000  Level Kansas City Center
08:34PM 40.3433 -92.0108 65° Northeast 484 557 33,000  Level Kansas City Center
08:35PM 40.3978 -91.8556 65° Northeast 477 549 33,000  Level Kansas City Center
08:36PM 40.4533 -91.6975 65° Northeast 480 552 33,000  Level Kansas City Center
08:37PM 40.4981 -91.5694 65° Northeast 484 557 33,000  Level Chicago Center
08:38PM 40.5517 -91.4075 66° East 486 559 33,000  Level Chicago Center
08:39PM 40.6069 -91.2436 66° East 489 563 33,000 -145 Level Chicago Center
08:40PM 40.6633 -91.0806 65° Northeast 490 564 32,700 -1,065 Descending Chicago Center
08:41PM 40.7178 -90.9181 66° East 485 558 30,800 -1,887 Descending Chicago Center
08:42PM 40.7719 -90.7639 65° Northeast 469 540 28,800 -1,707 Descending Chicago Center
08:43PM 40.8217 -90.6139 66° East 451 519 27,300 -1,024 Descending Chicago Center
08:44PM 40.8814 -90.4336 66° East 444 511 26,700 -1,210 Descending Chicago Center
08:45PM 40.9314 -90.2853 66° East 439 505 24,800 -1,306 Descending Chicago Center
08:46PM 40.9789 -90.1450 66° East 461 531 24,000 -387 Descending Chicago Center
08:47PM 41.0356 -89.9733 66° East 455 524 24,000  Level Chicago Center
08:48PM 41.0864 -89.8172 67° East 457 526 24,000  Level Chicago Center
08:49PM 41.1361 -89.6619 67° East 455 524 24,000 -829 Level Chicago Center
08:50PM 41.1894 -89.5128 65° Northeast 450 518 22,300 -1,805 Descending Chicago Center
08:51PM 41.2506 -89.3683 61° Northeast 448 516 20,300 -1,935 Descending Chicago Center
08:52PM 41.3083 -89.2228 62° Northeast 447 514 18,300 -2,323 Descending Chicago Center
08:53PM 41.3722 -89.0586 63° Northeast 419 482 15,500 -2,323 Descending Chicago Center
08:54PM 41.4258 -88.9242 62° Northeast 412 474 13,500 -1,887 Descending Chicago Center
08:55PM 41.4792 -88.7925 62° Northeast 409 471 11,600 -1,210 Descending Chicago Center
08:56PM 41.5283 -88.6656 63° Northeast 394 453 11,000 -341 Descending Chicago Center
08:57PM 41.5708 -88.5572 62° Northeast 343 395 10,900 -390 Descending Chicago Center
08:58PM 41.6156 -88.4536 60° Northeast 327 376 10,200 -1,500 Descending Chicago Center
08:59PM 41.6894 -88.3536 45° Northeast 329 379 7,800 -1,548 Descending Chicago Center
09:00PM 41.7750 -88.3336 10° North 316 364 7,000 -1,016 Descending Chicago Center
09:01PM 41.8589 -88.3156 North 307 353 5,700 -1,113 Descending Chicago Center
09:03PM 41.9344 -88.2967 11° North 299 344 4,700 -823 Descending Chicago Center
09:04PM 41.9647 -88.2147 64° Northeast 264 304 4,000 -532 Descending Chicago Center
09:05PM 41.9681 -88.1336 87° East 234 269 3,600 -727 Descending Chicago Center
09:05PM 41.9667 -88.0667 92° East 199 229 2,800 -1,055 Descending Chicago TRACON
09:06PM 41.9667 -88.0167 90° East 132 152 2,000 -737 Descending Chicago TRACON
09:07PM 41.9667 -87.9833 90° East 125 144 1,400 -600 Descending Chicago TRACON
09:10PM 41.9667 -87.9000 37° Northeast  Level FlightAware Approximate